Time;durP1;ratioP1;P1;durP2;ratioP2;P2;SDS_P1;SDS_P2;PMS_P1;PMS_P2;Temp;Humidity;BMP_temperature;BMP_pressure;BME280_temperature;BME280_humidity;BME280_pressure;Samples;Min_cycle;Max_cycle;Signal;HPM_P1;HPM_P2
2023/03/12 00:01:46;;;;;;;9.32;2.67;;;;;;;3.00;100.00;100855.22;4915366;29;20028;-82
2023/03/12 00:04:11;;;;;;;10.40;3.05;;;;;;;2.99;100.00;100848.03;4901315;29;20044;-82
2023/03/12 00:06:37;;;;;;;10.30;2.15;;;;;;;2.92;100.00;100838.47;4869874;29;20372;-82
2023/03/12 00:09:03;;;;;;;7.85;2.25;;;;;;;2.94;100.00;100841.97;4897540;29;20044;-82
2023/03/12 00:11:29;;;;;;;9.50;2.95;;;;;;;3.01;100.00;100848.84;4881837;29;20116;-82
2023/03/12 00:13:57;;;;;;;10.55;2.67;;;;;;;3.02;100.00;100847.91;4908643;29;20070;-82
2023/03/12 00:16:27;;;;;;;8.18;2.80;;;;;;;2.94;100.00;100831.16;4897766;29;20032;-83
2023/03/12 00:18:54;;;;;;;5.75;2.38;;;;;;;2.94;100.00;100842.84;4910823;29;20057;-82
2023/03/12 00:21:20;;;;;;;18.48;2.58;;;;;;;2.93;100.00;100832.97;4898367;29;20064;-83
2023/03/12 00:23:47;;;;;;;8.05;2.30;;;;;;;2.89;100.00;100839.50;4910766;29;20029;-83
2023/03/12 00:26:14;;;;;;;7.38;2.65;;;;;;;2.88;100.00;100843.13;4898624;29;20052;-82
2023/03/12 00:28:40;;;;;;;5.03;2.20;;;;;;;2.81;100.00;100816.47;4915256;29;20058;-82
2023/03/12 00:31:21;;;;;;;5.18;2.20;;;;;;;2.95;100.00;100838.31;4876892;29;20048;-83
2023/03/12 00:33:50;;;;;;;3.90;2.30;;;;;;;2.85;100.00;100827.06;4909707;29;20040;-82
2023/03/12 00:36:17;;;;;;;9.52;2.78;;;;;;;2.89;100.00;100827.81;4896869;29;20032;-82
2023/03/12 00:38:43;;;;;;;7.95;2.38;;;;;;;2.90;100.00;100832.25;4897418;29;20072;-82
2023/03/12 00:41:08;;;;;;;12.73;3.15;;;;;;;2.85;100.00;100835.16;4883118;29;20044;-82
2023/03/12 00:43:34;;;;;;;4.95;1.92;;;;;;;2.92;100.00;100824.97;4901253;29;20057;-82
2023/03/12 00:45:59;;;;;;;8.13;2.60;;;;;;;2.93;100.00;100821.28;4911081;29;20059;-81
2023/03/12 00:48:25;;;;;;;6.22;2.55;;;;;;;2.69;100.00;100789.06;4891959;29;20071;-82
2023/03/12 00:50:50;;;;;;;7.03;2.67;;;;;;;2.75;100.00;100785.19;4893688;29;20072;-82
2023/03/12 00:53:16;;;;;;;8.70;2.72;;;;;;;2.76;100.00;100801.34;4892714;29;20041;-82
2023/03/12 00:55:41;;;;;;;4.65;1.90;;;;;;;2.62;100.00;100774.06;4911048;29;20111;-82
2023/03/12 00:58:07;;;;;;;10.50;3.28;;;;;;;2.59;100.00;100774.22;4877652;29;20037;-82
2023/03/12 01:00:32;;;;;;;8.35;2.22;;;;;;;2.75;100.00;100796.00;4912663;29;20064;-82
2023/03/12 01:02:58;;;;;;;11.05;2.03;;;;;;;2.73;100.00;100796.06;4913429;29;20033;-82
2023/03/12 01:05:23;;;;;;;5.78;2.22;;;;;;;2.75;100.00;100787.91;4897291;29;20041;-82
2023/03/12 01:07:49;;;;;;;5.70;2.30;;;;;;;2.82;100.00;100799.28;4882984;29;20036;-82
2023/03/12 01:10:16;;;;;;;10.65;2.65;;;;;;;2.77;100.00;100804.91;4900801;29;20135;-82
2023/03/12 01:12:42;;;;;;;6.85;2.58;;;;;;;2.70;100.00;100773.72;4919243;28;20069;-82
2023/03/12 01:15:09;;;;;;;10.63;2.40;;;;;;;2.73;100.00;100782.56;4923350;28;20036;-82
2023/03/12 01:17:35;;;;;;;5.03;2.30;;;;;;;2.84;100.00;100776.66;4913357;29;20055;-83
2023/03/12 01:20:00;;;;;;;7.82;2.47;;;;;;;2.74;100.00;100756.44;4920451;29;20076;-83
2023/03/12 01:22:26;;;;;;;8.40;2.50;;;;;;;2.85;100.00;100781.09;4908249;29;20023;-82
2023/03/12 01:24:51;;;;;;;7.15;2.63;;;;;;;2.89;100.00;100771.03;4884629;29;20290;-83
2023/03/12 01:27:17;;;;;;;7.80;2.67;;;;;;;2.88;100.00;100775.53;4904193;29;20064;-83
2023/03/12 01:29:42;;;;;;;6.85;2.60;;;;;;;2.85;100.00;100774.81;4903586;29;20037;-83
2023/03/12 01:32:08;;;;;;;10.18;3.13;;;;;;;2.89;100.00;100765.63;4914787;29;20068;-82
2023/03/12 01:34:34;;;;;;;3.72;2.05;;;;;;;2.73;100.00;100727.63;4913598;29;20031;-82
2023/03/12 01:37:00;;;;;;;4.63;2.13;;;;;;;2.89;100.00;100741.28;4881236;29;20040;-82
2023/03/12 01:39:25;;;;;;;5.70;1.75;;;;;;;2.82;100.00;100720.88;4865158;29;20093;-82
2023/03/12 01:41:51;;;;;;;3.80;1.70;;;;;;;2.87;100.00;100756.69;4895492;29;20048;-82
2023/03/12 01:44:16;;;;;;;5.22;2.10;;;;;;;2.94;100.00;100763.56;4878653;29;20047;-82
2023/03/12 01:46:44;;;;;;;6.03;2.40;;;;;;;2.91;100.00;100766.41;4875808;29;20137;-81
2023/03/12 01:49:28;;;;;;;7.53;2.80;;;;;;;2.96;100.00;100758.06;4901609;29;20037;-82
2023/03/12 01:51:56;;;;;;;3.80;1.52;;;;;;;2.92;100.00;100760.94;4896210;29;20136;-82
2023/03/12 01:54:32;;;;;;;8.88;2.33;;;;;;;2.80;100.00;100742.59;4912165;29;20041;-82
2023/03/12 01:56:59;;;;;;;6.93;1.77;;;;;;;2.80;100.00;100745.28;4896377;29;20036;-82
2023/03/12 01:59:32;;;;;;;5.88;1.60;;;;;;;2.92;100.00;100765.47;4907587;29;20077;-82
2023/03/12 02:01:58;;;;;;;4.32;1.73;;;;;;;2.97;100.00;100766.13;4913770;29;20029;-83
2023/03/12 02:04:26;;;;;;;12.40;1.90;;;;;;;2.84;100.00;100725.28;4906016;29;20037;-82
2023/03/12 02:07:08;;;;;;;6.65;1.60;;;;;;;3.00;100.00;100738.94;4899453;29;20044;-82
2023/03/12 02:09:37;;;;;;;7.32;1.90;;;;;;;2.90;100.00;100726.78;4893397;29;20523;-83
2023/03/12 02:12:04;;;;;;;10.75;1.95;;;;;;;2.97;100.00;100728.25;4910684;29;20035;-82
2023/03/12 02:14:30;;;;;;;7.60;1.65;;;;;;;2.86;100.00;100714.38;4915528;29;20047;-83
2023/03/12 02:16:55;;;;;;;5.82;1.73;;;;;;;2.91;100.00;100728.56;4900249;29;20067;-83
2023/03/12 02:19:49;;;;;;;4.60;1.73;;;;;;;2.94;100.00;100731.13;4928442;29;20104;-82
2023/03/12 02:22:14;;;;;;;;;;;;;;;2.88;100.00;100734.09;4919956;29;20040;-83
2023/03/12 02:24:57;;;;;;;5.28;1.67;;;;;;;2.88;100.00;100723.28;4919009;29;19926;-83
2023/03/12 02:27:23;;;;;;;5.15;2.45;;;;;;;2.85;100.00;100708.09;4919412;29;20567;-83
2023/03/12 02:29:49;;;;;;;11.95;1.95;;;;;;;2.85;100.00;100697.25;4906456;29;20028;-82
2023/03/12 02:32:25;;;;;;;10.73;2.67;;;;;;;2.87;100.00;100691.78;4934739;29;20036;-82
2023/03/12 02:34:50;;;;;;;7.35;2.70;;;;;;;2.78;100.00;100705.78;4903844;29;20051;-82
2023/03/12 02:37:18;;;;;;;9.13;2.95;;;;;;;2.81;100.00;100711.03;4919770;29;20050;-82
2023/03/12 02:39:48;;;;;;;8.52;2.72;;;;;;;2.84;100.00;100694.66;4918300;29;20040;-82
2023/03/12 02:42:14;;;;;;;6.55;2.50;;;;;;;2.79;100.00;100692.19;4935828;29;20504;-82
2023/03/12 02:44:40;;;;;;;5.78;2.70;;;;;;;2.84;100.00;100695.53;4903115;29;20087;-82
2023/03/12 02:47:05;;;;;;;7.60;2.70;;;;;;;2.73;100.00;100673.56;4913940;29;20377;-82
2023/03/12 02:49:32;;;;;;;6.68;2.28;;;;;;;2.87;100.00;100689.09;4902050;29;20035;-83
2023/03/12 02:51:59;;;;;;;10.07;2.85;;;;;;;2.83;100.00;100682.09;4913621;29;20044;-82
2023/03/12 02:54:25;;;;;;;15.55;2.67;;;;;;;2.83;100.00;100674.84;4862240;29;20040;-82
2023/03/12 02:56:51;;;;;;;5.68;2.63;;;;;;;2.90;100.00;100686.22;4877872;29;20043;-81
2023/03/12 02:59:24;;;;;;;9.60;2.65;;;;;;;2.92;100.00;100687.91;4904120;29;20171;-82
2023/03/12 03:01:54;;;;;;;7.78;2.95;;;;;;;2.91;100.00;100685.28;4907475;29;20437;-82
2023/03/12 03:04:20;;;;;;;9.00;2.97;;;;;;;2.96;100.00;100688.63;4916723;29;20032;-82
2023/03/12 03:06:47;;;;;;;9.50;2.58;;;;;;;2.98;100.00;100694.84;4909119;29;20122;-82
2023/03/12 03:09:13;;;;;;;8.00;2.30;;;;;;;2.95;100.00;100694.97;4908992;29;20047;-81
2023/03/12 03:11:38;;;;;;;8.90;2.58;;;;;;;2.94;100.00;100696.81;4893835;29;20028;-82
2023/03/12 03:14:05;;;;;;;4.35;2.88;;;;;;;3.01;100.00;100683.00;4910048;29;20068;-82
2023/03/12 03:16:32;;;;;;;9.60;3.75;;;;;;;3.06;100.00;100684.50;4910619;29;20109;-82
2023/03/12 03:18:57;;;;;;;7.50;3.20;;;;;;;2.97;100.00;100679.59;4901963;29;20119;-82
2023/03/12 03:21:23;;;;;;;8.90;2.85;;;;;;;2.98;100.00;100680.44;4892931;29;20063;-82
2023/03/12 03:23:49;;;;;;;8.93;3.10;;;;;;;3.01;100.00;100683.88;4875427;29;20039;-82
2023/03/12 03:26:17;;;;;;;10.52;3.13;;;;;;;3.06;100.00;100680.94;4893859;29;20400;-82
2023/03/12 03:28:43;;;;;;;5.43;2.42;;;;;;;2.99;100.00;100676.81;4910124;29;20507;-82
2023/03/12 03:31:09;;;;;;;8.10;3.05;;;;;;;3.04;100.00;100674.72;4892955;29;20040;-81
2023/03/12 03:33:37;;;;;;;6.63;2.92;;;;;;;2.99;100.00;100671.38;4893717;29;20433;-81
2023/03/12 03:36:04;;;;;;;9.98;2.92;;;;;;;3.07;100.00;100688.09;4908124;29;20060;-82
2023/03/12 03:38:31;;;;;;;7.03;3.28;;;;;;;3.05;100.00;100681.88;4909354;29;20024;-82
2023/03/12 03:40:56;;;;;;;6.47;3.00;;;;;;;2.92;100.00;100673.53;4915276;29;20024;-84
2023/03/12 03:43:23;;;;;;;15.75;3.88;;;;;;;2.98;100.00;100686.72;4883049;29;20029;-83
2023/03/12 03:45:56;;;;;;;7.40;2.90;;;;;;;2.97;100.00;100679.59;4871652;29;20024;-83
2023/03/12 03:48:21;;;;;;;;;;;;;;;3.04;100.00;100680.16;4918553;29;20091;-83
2023/03/12 03:50:46;;;;;;;10.88;3.20;;;;;;;2.92;100.00;100665.41;4916522;29;19915;-83
2023/03/12 03:53:12;;;;;;;12.55;3.03;;;;;;;2.99;100.00;100674.97;4915473;29;20077;-83
2023/03/12 03:55:39;;;;;;;10.07;3.38;;;;;;;2.91;100.00;100663.66;4901995;29;20037;-83
2023/03/12 03:58:05;;;;;;;6.15;3.08;;;;;;;2.91;100.00;100660.94;4882739;29;20041;-83
2023/03/12 04:00:31;;;;;;;5.28;2.88;;;;;;;2.99;100.00;100671.38;4880479;29;20037;-83
2023/03/12 04:02:57;;;;;;;10.40;3.22;;;;;;;3.09;100.00;100669.97;4892660;29;20025;-82
2023/03/12 04:05:23;;;;;;;9.90;3.00;;;;;;;2.93;100.00;100643.69;4892688;29;20048;-82
2023/03/12 04:07:53;;;;;;;7.85;3.03;;;;;;;3.03;100.00;100663.03;4910038;29;20092;-82
2023/03/12 04:10:23;;;;;;;7.05;3.13;;;;;;;3.05;100.00;100658.44;4906591;29;20035;-82
2023/03/12 04:12:48;;;;;;;6.50;2.90;;;;;;;2.99;100.00;100641.66;4909581;29;20102;-82
2023/03/12 04:15:14;;;;;;;12.45;2.92;;;;;;;2.99;100.00;100631.69;4910461;29;20479;-82
2023/03/12 04:17:40;;;;;;;8.02;3.40;;;;;;;2.98;100.00;100623.66;4909297;29;20047;-82
2023/03/12 04:20:08;;;;;;;9.15;2.80;;;;;;;2.98;100.00;100618.25;4884784;29;20057;-82
2023/03/12 04:22:34;;;;;;;7.68;2.78;;;;;;;2.97;100.00;100632.72;4878665;29;20044;-82
2023/03/12 04:24:59;;;;;;;10.85;3.35;;;;;;;2.97;100.00;100622.78;4910254;29;20036;-82
2023/03/12 04:27:25;;;;;;;8.70;2.67;;;;;;;2.94;100.00;100618.41;4904263;29;20067;-82
2023/03/12 04:29:50;;;;;;;4.97;2.55;;;;;;;2.97;100.00;100619.19;4894585;29;20731;-82
2023/03/12 04:32:16;;;;;;;4.88;2.72;;;;;;;2.97;100.00;100608.38;4890933;29;20092;-82
2023/03/12 04:34:41;;;;;;;9.35;3.03;;;;;;;3.03;100.00;100611.63;4890710;29;20017;-82
2023/03/12 04:37:10;;;;;;;7.93;2.92;;;;;;;2.93;100.00;100596.84;4888249;29;20389;-82
2023/03/12 04:39:35;;;;;;;8.07;3.45;;;;;;;2.96;100.00;100585.88;4894553;29;20032;-82
2023/03/12 04:42:04;;;;;;;6.25;2.95;;;;;;;2.92;100.00;100587.00;4881120;29;20041;-81
2023/03/12 04:44:29;;;;;;;8.88;3.22;;;;;;;2.79;100.00;100569.63;4888087;29;20052;-81
2023/03/12 04:46:55;;;;;;;7.95;2.50;;;;;;;2.87;100.00;100571.00;4888562;29;20076;-81
2023/03/12 04:49:20;;;;;;;6.95;2.60;;;;;;;2.81;100.00;100554.22;4877112;29;20036;-81
2023/03/12 04:51:46;;;;;;;8.00;2.95;;;;;;;2.88;100.00;100571.88;4897018;29;20036;-82
2023/03/12 04:54:12;;;;;;;5.32;2.13;;;;;;;2.96;100.00;100579.59;4891840;29;20088;-81
2023/03/12 04:56:37;;;;;;;7.53;2.63;;;;;;;2.91;100.00;100559.06;4891922;29;20036;-81
2023/03/12 04:59:02;;;;;;;11.50;2.60;;;;;;;2.99;100.00;100557.81;4894264;29;20048;-81
2023/03/12 05:01:31;;;;;;;5.65;2.30;;;;;;;3.00;100.00;100554.13;4875990;29;20096;-81
2023/03/12 05:03:57;;;;;;;10.93;2.92;;;;;;;2.86;100.00;100530.53;4905903;29;20060;-80
2023/03/12 05:06:24;;;;;;;7.95;2.80;;;;;;;2.96;100.00;100547.16;4906880;29;20488;-80
2023/03/12 05:08:50;;;;;;;7.05;2.60;;;;;;;2.93;100.00;100548.16;4859450;29;20045;-81
2023/03/12 05:11:18;;;;;;;5.00;2.50;;;;;;;2.93;100.00;100550.88;4910072;29;20053;-83
2023/03/12 05:13:44;;;;;;;6.25;2.20;;;;;;;2.92;100.00;100547.31;4903280;29;20037;-82
2023/03/12 05:16:10;;;;;;;13.35;2.65;;;;;;;3.02;100.00;100558.50;4907142;29;20036;-82
2023/03/12 05:18:36;;;;;;;9.18;2.20;;;;;;;2.97;100.00;100543.47;4889894;29;20136;-82
2023/03/12 05:21:11;;;;;;;4.32;2.15;;;;;;;2.94;100.00;100529.16;4889779;29;20072;-82
2023/03/12 05:23:38;;;;;;;6.13;2.38;;;;;;;3.00;100.00;100543.31;4905570;29;20037;-82
2023/03/12 05:26:05;;;;;;;4.05;1.80;;;;;;;2.94;100.00;100528.31;4913243;29;20040;-82
2023/03/12 05:28:31;;;;;;;7.05;2.55;;;;;;;3.06;100.00;100533.03;4890313;29;20565;-82
2023/03/12 05:30:58;;;;;;;8.88;2.53;;;;;;;3.04;100.00;100523.28;4905919;29;20032;-82
2023/03/12 05:33:25;;;;;;;4.30;2.22;;;;;;;3.05;100.00;100515.09;4894026;29;20124;-82
2023/03/12 05:35:51;;;;;;;6.43;2.28;;;;;;;3.00;100.00;100513.56;4894732;29;20037;-82
2023/03/12 05:38:17;;;;;;;14.43;2.15;;;;;;;3.05;100.00;100522.31;4907458;29;20043;-82
2023/03/12 05:40:42;;;;;;;13.77;2.67;;;;;;;3.00;100.00;100498.25;4891172;29;20053;-82
2023/03/12 05:43:08;;;;;;;4.85;2.28;;;;;;;3.02;100.00;100509.84;4890550;29;20060;-82
2023/03/12 05:45:33;;;;;;;9.05;1.95;;;;;;;3.06;100.00;100519.53;4874872;29;20064;-81
2023/03/12 05:47:59;;;;;;;5.22;1.98;;;;;;;3.03;100.00;100516.13;4902332;29;20037;-82
2023/03/12 05:50:24;;;;;;;4.88;1.90;;;;;;;3.01;100.00;100507.22;4894412;29;20390;-81
2023/03/12 05:52:50;;;;;;;7.43;2.53;;;;;;;3.03;100.00;100510.69;4895373;29;20064;-81
2023/03/12 05:55:16;;;;;;;8.00;2.42;;;;;;;3.17;100.00;100507.28;4895569;29;20489;-81
2023/03/12 05:57:42;;;;;;;6.43;2.40;;;;;;;3.04;100.00;100501.66;4910055;29;20065;-81
2023/03/12 06:00:08;;;;;;;9.90;2.17;;;;;;;3.16;100.00;100503.66;4911890;29;20051;-81
2023/03/12 06:02:34;;;;;;;3.08;2.05;;;;;;;3.11;100.00;100505.75;4896185;29;20037;-81
2023/03/12 06:04:59;;;;;;;5.07;2.50;;;;;;;3.17;100.00;100513.56;4880840;29;20037;-81
2023/03/12 06:07:25;;;;;;;4.75;2.22;;;;;;;3.02;100.00;100482.78;4898694;29;20033;-80
2023/03/12 06:09:50;;;;;;;7.68;3.03;;;;;;;3.09;100.00;100502.28;4895146;29;20115;-81
2023/03/12 06:12:15;;;;;;;5.85;3.05;;;;;;;3.21;100.00;100514.25;4891390;29;20059;-80
2023/03/12 06:14:41;;;;;;;10.57;2.70;;;;;;;3.16;100.00;100505.50;4869838;29;20464;-80
2023/03/12 06:17:06;;;;;;;10.95;3.17;;;;;;;3.10;100.00;100502.19;4905742;29;20032;-81
2023/03/12 06:19:32;;;;;;;9.98;3.38;;;;;;;3.12;100.00;100496.69;4890261;29;20052;-82
2023/03/12 06:21:57;;;;;;;7.47;3.55;;;;;;;3.14;100.00;100494.78;4882590;29;20187;-81
2023/03/12 06:24:23;;;;;;;8.57;3.83;;;;;;;3.19;100.00;100498.09;4877708;29;20041;-83
2023/03/12 06:26:48;;;;;;;11.40;3.55;;;;;;;3.14;100.00;100511.00;4894901;29;20032;-81
2023/03/12 06:29:14;;;;;;;15.70;3.70;;;;;;;3.11;100.00;100505.75;4894315;29;20045;-81
2023/03/12 06:31:40;;;;;;;13.85;2.97;;;;;;;3.02;100.00;100495.44;4895516;29;20036;-82
2023/03/12 06:34:07;;;;;;;11.50;2.88;;;;;;;3.12;100.00;100502.97;4909482;29;20068;-82
2023/03/12 06:36:33;;;;;;;12.73;4.13;;;;;;;3.07;100.00;100488.81;4909629;29;20032;-82
2023/03/12 06:38:58;;;;;;;12.50;3.80;;;;;;;3.24;100.00;100503.25;4893209;29;20043;-83
2023/03/12 06:41:24;;;;;;;7.32;3.17;;;;;;;3.26;100.00;100504.03;4888510;29;20041;-81
2023/03/12 06:43:50;;;;;;;14.57;3.15;;;;;;;3.21;100.00;100498.88;4896890;29;20033;-81
2023/03/12 06:46:17;;;;;;;10.68;3.42;;;;;;;3.28;100.00;100507.53;4891978;29;20037;-81
2023/03/12 06:48:45;;;;;;;9.40;3.50;;;;;;;3.25;100.00;100508.59;4906237;29;20040;-81
2023/03/12 06:51:13;;;;;;;8.80;3.55;;;;;;;3.32;100.00;100506.44;4892184;29;20433;-80
2023/03/12 06:53:38;;;;;;;11.75;3.38;;;;;;;3.28;100.00;100499.41;4900862;29;20097;-82
2023/03/12 06:56:04;;;;;;;7.35;3.80;;;;;;;3.21;100.00;100493.47;4894203;29;20087;-82
2023/03/12 06:58:30;;;;;;;11.68;3.67;;;;;;;3.20;100.00;100486.34;4908305;29;20032;-82
2023/03/12 07:00:56;;;;;;;9.35;3.25;;;;;;;3.25;100.00;100499.63;4877235;29;20052;-81
2023/03/12 07:03:22;;;;;;;5.80;3.75;;;;;;;3.22;100.00;100492.53;4908161;29;20033;-83
2023/03/12 07:05:48;;;;;;;8.70;4.05;;;;;;;3.28;100.00;100485.91;4921928;29;20067;-84
2023/03/12 07:08:15;;;;;;;12.32;4.05;;;;;;;3.16;100.00;100451.41;4917824;29;20071;-81
2023/03/12 07:10:40;;;;;;;9.85;3.53;;;;;;;3.16;100.00;100460.41;4893619;29;20036;-81
2023/03/12 07:13:06;;;;;;;10.40;3.92;;;;;;;3.24;100.00;100455.44;4904541;29;20553;-81
2023/03/12 07:15:32;;;;;;;6.50;4.25;;;;;;;3.31;100.00;100464.09;4902864;29;20029;-81
2023/03/12 07:18:10;;;;;;;13.90;4.22;;;;;;;3.37;100.00;100480.00;4906814;29;20055;-85
2023/03/12 07:20:38;;;;;;;12.38;4.07;;;;;;;3.37;100.00;100477.28;4899897;29;20033;-81
2023/03/12 07:23:03;;;;;;;11.90;4.10;;;;;;;3.30;100.00;100462.34;4909267;29;20044;-81
2023/03/12 07:25:29;;;;;;;17.23;4.00;;;;;;;3.34;100.00;100485.56;4875314;29;20581;-80
2023/03/12 07:27:54;;;;;;;14.88;4.43;;;;;;;3.26;100.00;100479.69;4872299;29;20054;-80
2023/03/12 07:30:20;;;;;;;14.98;4.68;;;;;;;3.33;100.00;100473.00;4903661;29;20040;-79
2023/03/12 07:32:46;;;;;;;14.70;5.28;;;;;;;3.42;100.00;100477.91;4907033;29;20132;-79
2023/03/12 07:35:11;;;;;;;7.50;4.75;;;;;;;3.42;100.00;100480.59;4859276;29;20057;-78
2023/03/12 07:37:37;;;;;;;11.30;4.70;;;;;;;3.44;100.00;100477.81;4892744;29;20064;-77
2023/03/12 07:40:06;;;;;;;10.20;4.38;;;;;;;3.39;100.00;100480.75;4892082;29;20496;-79
2023/03/12 07:42:32;;;;;;;9.93;4.55;;;;;;;3.40;100.00;100466.28;4891549;29;20048;-78
2023/03/12 07:44:58;;;;;;;11.20;5.07;;;;;;;3.41;100.00;100462.63;4897727;29;20097;-78
2023/03/12 07:47:23;;;;;;;10.63;5.35;;;;;;;3.34;100.00;100449.53;4875444;29;20132;-77
2023/03/12 07:49:49;;;;;;;12.82;5.45;;;;;;;3.37;100.00;100466.47;4860414;29;20036;-81
2023/03/12 07:52:14;;;;;;;14.63;5.07;;;;;;;3.48;100.00;100474.84;4854736;29;20047;-78
2023/03/12 07:54:40;;;;;;;14.27;6.18;;;;;;;3.46;100.00;100475.88;4884752;29;20601;-78
2023/03/12 07:57:06;;;;;;;12.77;5.38;;;;;;;3.48;100.00;100482.09;4870626;29;20117;-79
2023/03/12 07:59:32;;;;;;;13.70;6.28;;;;;;;3.54;100.00;100468.22;4870878;29;20073;-80
2023/03/12 08:01:58;;;;;;;11.40;6.40;;;;;;;3.56;100.00;100462.72;4852786;29;20037;-80
2023/03/12 08:04:23;;;;;;;16.00;6.80;;;;;;;3.64;100.00;100468.56;4871642;29;20044;-81
2023/03/12 08:06:49;;;;;;;15.70;6.45;;;;;;;3.65;100.00;100467.63;4871240;29;20037;-80
2023/03/12 08:09:14;;;;;;;12.68;6.50;;;;;;;3.64;100.00;100465.84;4855067;29;20507;-79
2023/03/12 08:11:40;;;;;;;14.02;6.35;;;;;;;3.62;100.00;100455.16;4870291;29;21592;-81
2023/03/12 08:14:05;;;;;;;18.20;8.18;;;;;;;3.74;100.00;100456.28;4889184;29;20037;-80
2023/03/12 08:16:31;;;;;;;14.40;6.60;;;;;;;3.76;100.00;100461.59;4885799;29;20041;-79
2023/03/12 08:18:57;;;;;;;15.32;7.40;;;;;;;3.87;100.00;100464.56;4906316;29;20159;-78
2023/03/12 08:21:22;;;;;;;18.52;7.25;;;;;;;3.82;100.00;100470.25;4873330;29;20029;-79
2023/03/12 08:23:48;;;;;;;17.00;8.00;;;;;;;3.90;100.00;100468.91;4898553;29;20032;-78
2023/03/12 08:26:13;;;;;;;15.57;7.75;;;;;;;3.86;100.00;100469.09;4878295;29;20037;-80
2023/03/12 08:28:39;;;;;;;20.15;8.75;;;;;;;3.94;100.00;100457.81;4877835;29;20095;-78
2023/03/12 08:31:05;;;;;;;17.45;9.10;;;;;;;3.99;100.00;100463.84;4899353;29;20047;-79
2023/03/12 08:33:30;;;;;;;17.20;8.38;;;;;;;4.03;100.00;100475.38;4898163;29;20481;-82
2023/03/12 08:35:56;;;;;;;23.00;8.68;;;;;;;4.04;100.00;100467.16;4894963;29;20133;-81
2023/03/12 08:38:22;;;;;;;14.55;8.30;;;;;;;4.15;100.00;100462.94;4880023;29;20029;-81
2023/03/12 08:40:58;;;;;;;15.73;6.95;;;;;;;4.14;100.00;100472.91;4879133;29;20056;-81
2023/03/12 08:43:27;;;;;;;15.50;8.88;;;;;;;4.17;100.00;100461.03;4912042;29;20043;-82
2023/03/12 08:45:57;;;;;;;21.15;9.68;;;;;;;4.16;100.00;100457.44;4905160;29;20143;-82
2023/03/12 08:48:23;;;;;;;17.27;8.75;;;;;;;4.30;100.00;100480.16;4910528;29;20039;-81
2023/03/12 08:50:49;;;;;;;17.02;8.68;;;;;;;4.37;100.00;100489.66;4889546;29;20120;-81
2023/03/12 08:53:15;;;;;;;16.05;9.10;;;;;;;4.30;100.00;100480.16;4882309;29;20032;-83
2023/03/12 08:55:40;;;;;;;14.38;8.63;;;;;;;4.41;100.00;100483.06;4890090;29;20037;-83
2023/03/12 08:58:06;;;;;;;17.85;10.07;;;;;;;4.47;100.00;100480.00;4887226;29;20048;-82
2023/03/12 09:00:35;;;;;;;16.08;9.80;;;;;;;4.59;100.00;100483.81;4893333;29;20036;-82
2023/03/12 09:03:04;;;;;;;20.90;10.30;;;;;;;4.61;100.00;100465.63;4874935;29;20044;-81
2023/03/12 09:05:30;;;;;;;15.75;9.38;;;;;;;4.73;100.00;100474.84;4887759;29;20039;-81
2023/03/12 09:07:56;;;;;;;22.92;11.05;;;;;;;4.75;100.00;100470.19;4889026;29;20036;-82
2023/03/12 09:10:22;;;;;;;17.92;10.00;;;;;;;4.76;100.00;100453.84;4875310;29;20036;-84
2023/03/12 09:12:48;;;;;;;22.58;9.40;;;;;;;5.05;100.00;100485.53;4889139;29;20036;-83
2023/03/12 09:15:13;;;;;;;18.33;10.27;;;;;;;5.17;100.00;100489.34;4886891;29;20047;-82
2023/03/12 09:17:39;;;;;;;17.33;11.02;;;;;;;5.28;100.00;100487.72;4882236;29;20033;-83
2023/03/12 09:20:07;;;;;;;19.52;11.55;;;;;;;5.34;100.00;100500.00;4892120;29;20049;-81
2023/03/12 09:22:35;;;;;;;18.23;10.73;;;;;;;5.34;100.00;100497.28;4886707;29;20021;-83
2023/03/12 09:25:02;;;;;;;19.90;11.73;;;;;;;5.38;100.00;100479.84;4871154;29;20047;-83
2023/03/12 09:27:28;;;;;;;31.08;12.75;;;;;;;5.59;100.00;100493.91;4855663;29;20037;-82
2023/03/12 09:29:54;;;;;;;24.20;12.80;;;;;;;5.64;100.00;100489.03;4892185;29;20047;-83
2023/03/12 09:32:19;;;;;;;20.38;12.05;;;;;;;5.66;100.00;100488.94;4855930;29;20036;-84
2023/03/12 09:34:45;;;;;;;22.95;12.60;;;;;;;5.79;100.00;100492.59;4885465;29;20043;-80
2023/03/12 09:37:10;;;;;;;27.85;14.50;;;;;;;5.81;100.00;100487.94;4886634;29;20055;-79
2023/03/12 09:39:36;;;;;;;23.73;13.57;;;;;;;5.92;100.00;100491.78;4887123;29;20048;-84
2023/03/12 09:42:03;;;;;;;24.45;13.32;;;;;;;6.06;100.00;100489.06;4880122;29;20471;-83
2023/03/12 09:44:40;;;;;;;27.58;15.00;;;;;;;6.19;100.00;100491.84;4898461;29;20096;-83
2023/03/12 09:47:21;;;;;;;30.98;14.57;;;;;;;6.21;100.00;100490.75;4898812;29;20047;-76
2023/03/12 09:49:58;;;;;;;22.13;13.75;;;;;;;6.33;100.00;100494.53;4902232;29;20040;-84
2023/03/12 09:52:31;;;;;;;21.80;13.70;;;;;;;6.39;100.00;100494.09;4873470;29;20125;-84
2023/03/12 09:55:18;;;;;;;30.65;14.27;;;;;;;6.53;100.00;100498.59;4913920;29;20128;-84
2023/03/12 09:57:46;;;;;;;27.70;14.50;;;;;;;6.52;100.00;100487.81;4900226;29;20100;-84
2023/03/12 10:00:17;;;;;;;25.45;13.63;;;;;;;6.63;100.00;100493.41;4884200;29;20043;-85
2023/03/12 10:02:59;;;;;;;22.85;13.30;;;;;;;6.75;100.00;100511.59;4901537;29;20036;-79
2023/03/12 10:05:40;;;;;;;31.05;15.20;;;;;;;6.91;100.00;100513.28;4890959;29;20037;-84
2023/03/12 10:08:11;;;;;;;25.63;14.02;;;;;;;6.83;100.00;100516.50;4882697;29;20123;-86
2023/03/12 10:10:54;;;;;;;26.38;14.80;;;;;;;6.94;100.00;100516.66;4903656;29;20075;-81
2023/03/12 10:13:22;;;;;;;20.52;13.75;;;;;;;7.09;100.00;100520.16;4896246;29;20473;-85
2023/03/12 10:16:05;;;;;;;23.35;12.25;;;;;;;7.15;100.00;100521.59;4903265;29;20036;-84
2023/03/12 10:18:48;;;;;;;22.42;12.77;;;;;;;7.29;100.00;100507.84;4917978;29;20076;-85
2023/03/12 10:21:16;;;;;;;;;;;;;;;7.39;100.00;100523.53;4909492;29;20039;-85
2023/03/12 10:24:10;;;;;;;19.92;12.10;;;;;;;7.27;100.00;100496.19;4894630;29;19915;-85
2023/03/12 10:26:42;;;;;;;20.33;13.10;;;;;;;7.48;100.00;100498.38;4900335;29;20076;-84
2023/03/12 10:29:14;;;;;;;21.25;11.93;;;;;;;7.73;100.00;100530.16;4908624;29;20036;-85
2023/03/12 10:32:04;;;;;;;26.30;12.88;;;;;;;7.66;100.00;100526.16;4910129;29;20055;-82
2023/03/12 10:34:34;;;;;;;25.80;11.77;;;;;;;7.62;100.00;100511.84;4907186;29;20028;-84
2023/03/12 10:37:33;;;;;;;27.13;13.40;;;;;;;7.76;100.00;100505.41;4895027;29;20033;-83
2023/03/12 10:39:59;;;;;;;23.90;12.75;;;;;;;7.95;100.00;100513.09;4878609;29;20075;-84
2023/03/12 10:42:29;;;;;;;24.75;14.30;;;;;;;8.07;100.00;100511.31;4898220;29;20436;-85
2023/03/12 10:45:14;;;;;;;27.77;13.52;;;;;;;8.15;100.00;100519.81;4887502;29;20400;-85
2023/03/12 10:47:41;;;;;;;25.73;13.25;;;;;;;8.14;100.00;100511.75;4909539;29;20048;-85
2023/03/12 10:50:18;;;;;;;24.10;12.68;;;;;;;8.21;100.00;100523.91;4893999;29;20028;-83
2023/03/12 10:52:47;;;;;;;26.75;13.60;;;;;;;8.39;100.00;100511.63;4923346;29;20552;-84
2023/03/12 10:55:33;;;;;;;27.63;14.57;;;;;;;8.38;100.00;100507.16;4927010;29;20162;-83
2023/03/12 10:57:58;;;;;;;35.53;14.32;;;;;;;8.54;100.00;100503.28;4878012;29;20048;-82
2023/03/12 11:00:31;;;;;;;35.13;15.70;;;;;;;8.57;100.00;100503.91;4880000;29;20126;-82
2023/03/12 11:03:05;;;;;;;30.42;14.90;;;;;;;8.67;100.00;100501.34;4898555;29;20040;-83
2023/03/12 11:05:44;;;;;;;39.38;14.05;;;;;;;8.43;100.00;100493.22;4906934;29;20046;-85
2023/03/12 11:08:25;;;;;;;33.08;14.98;;;;;;;8.54;100.00;100493.25;4903292;29;20055;-85
2023/03/12 11:10:52;;;;;;;36.83;16.38;;;;;;;8.68;100.00;100497.66;4910654;29;20032;-83
2023/03/12 11:13:33;;;;;;;39.15;15.80;;;;;;;8.81;100.00;100501.16;4910117;29;20040;-84
2023/03/12 11:16:16;;;;;;;39.50;16.08;;;;;;;8.89;100.00;100505.19;4897209;29;20111;-83
2023/03/12 11:19:03;;;;;;;34.85;15.15;;;;;;;8.82;100.00;100504.75;4925053;29;20059;-84
2023/03/12 11:21:39;;;;;;;43.17;15.70;;;;;;;8.88;100.00;100515.22;4895145;29;20123;-85
2023/03/12 11:24:09;;;;;;;35.10;15.73;;;;;;;8.89;100.00;100508.78;4900928;29;20015;-84